sensor_id;sensor_type;location;lat;lon;timestamp;temperature;humidity
4058;DHT22;2044;48.692;9.020;2022-09-17T00:00:11;7.90;1.00
4058;DHT22;2044;48.692;9.020;2022-09-17T00:02:38;8.10;1.00
4058;DHT22;2044;48.692;9.020;2022-09-17T00:05:05;8.00;1.00
4058;DHT22;2044;48.692;9.020;2022-09-17T00:07:32;8.00;1.00
4058;DHT22;2044;48.692;9.020;2022-09-17T00:09:59;8.00;1.00
4058;DHT22;2044;48.692;9.020;2022-09-17T00:12:25;7.90;1.00
4058;DHT22;2044;48.692;9.020;2022-09-17T00:14:53;7.90;1.00
4058;DHT22;2044;48.692;9.020;2022-09-17T00:17:20;7.70;1.00
4058;DHT22;2044;48.692;9.020;2022-09-17T00:19:47;7.60;1.00
4058;DHT22;2044;48.692;9.020;2022-09-17T00:22:14;7.60;1.00
4058;DHT22;2044;48.692;9.020;2022-09-17T00:24:41;7.60;1.00
4058;DHT22;2044;48.692;9.020;2022-09-17T00:27:08;7.70;1.00
4058;DHT22;2044;48.692;9.020;2022-09-17T00:29:34;7.70;1.00
4058;DHT22;2044;48.692;9.020;2022-09-17T00:32:03;7.80;1.00
4058;DHT22;2044;48.692;9.020;2022-09-17T00:34:29;7.80;1.00
4058;DHT22;2044;48.692;9.020;2022-09-17T00:36:56;7.90;1.00
4058;DHT22;2044;48.692;9.020;2022-09-17T00:39:23;7.90;28.80
4058;DHT22;2044;48.692;9.020;2022-09-17T00:41:49;8.00;1.00
4058;DHT22;2044;48.692;9.020;2022-09-17T00:44:40;8.00;1.00
4058;DHT22;2044;48.692;9.020;2022-09-17T00:47:12;8.10;1.00
4058;DHT22;2044;48.692;9.020;2022-09-17T00:49:40;8.10;1.00
4058;DHT22;2044;48.692;9.020;2022-09-17T00:52:11;8.20;1.00
4058;DHT22;2044;48.692;9.020;2022-09-17T00:54:41;8.20;1.00
4058;DHT22;2044;48.692;9.020;2022-09-17T00:57:08;8.20;1.00
4058;DHT22;2044;48.692;9.020;2022-09-17T00:59:35;8.30;1.00
4058;DHT22;2044;48.692;9.020;2022-09-17T01:02:03;8.30;1.00
4058;DHT22;2044;48.692;9.020;2022-09-17T01:04:31;8.30;1.00
4058;DHT22;2044;48.692;9.020;2022-09-17T01:07:06;8.30;1.00
4058;DHT22;2044;48.692;9.020;2022-09-17T01:09:42;8.40;1.00
4058;DHT22;2044;48.692;9.020;2022-09-17T01:12:26;8.30;1.00
4058;DHT22;2044;48.692;9.020;2022-09-17T01:15:04;8.40;1.00
4058;DHT22;2044;48.692;9.020;2022-09-17T01:17:36;8.40;1.00
4058;DHT22;2044;48.692;9.020;2022-09-17T01:23:47;8.40;1.00
4058;DHT22;2044;48.692;9.020;2022-09-17T01:26:34;8.30;1.00
4058;DHT22;2044;48.692;9.020;2022-09-17T01:29:13;8.20;1.00
4058;DHT22;2044;48.692;9.020;2022-09-17T01:31:47;8.20;1.00
4058;DHT22;2044;48.692;9.020;2022-09-17T01:34:21;8.20;1.00
4058;DHT22;2044;48.692;9.020;2022-09-17T01:36:59;8.20;1.00
4058;DHT22;2044;48.692;9.020;2022-09-17T01:39:33;8.10;1.00
4058;DHT22;2044;48.692;9.020;2022-09-17T01:42:08;8.00;1.00
4058;DHT22;2044;48.692;9.020;2022-09-17T01:44:39;7.80;1.00
4058;DHT22;2044;48.692;9.020;2022-09-17T01:47:14;7.70;1.00
4058;DHT22;2044;48.692;9.020;2022-09-17T01:49:43;7.70;1.00
4058;DHT22;2044;48.692;9.020;2022-09-17T01:52:12;7.70;1.00
4058;DHT22;2044;48.692;9.020;2022-09-17T01:54:42;7.80;1.00
4058;DHT22;2044;48.692;9.020;2022-09-17T01:57:14;7.80;62.10
4058;DHT22;2044;48.692;9.020;2022-09-17T01:59:47;7.70;5.40
4058;DHT22;2044;48.692;9.020;2022-09-17T02:02:21;7.70;36.60
4058;DHT22;2044;48.692;9.020;2022-09-17T02:04:54;7.70;22.20
4058;DHT22;2044;48.692;9.020;2022-09-17T02:07:23;7.80;1.70
4058;DHT22;2044;48.692;9.020;2022-09-17T02:09:53;7.90;65.90
4058;DHT22;2044;48.692;9.020;2022-09-17T02:12:27;8.00;1.00
4058;DHT22;2044;48.692;9.020;2022-09-17T02:14:58;8.00;1.90
4058;DHT22;2044;48.692;9.020;2022-09-17T02:17:30;8.00;1.00
4058;DHT22;2044;48.692;9.020;2022-09-17T02:19:58;8.10;1.00
4058;DHT22;2044;48.692;9.020;2022-09-17T02:22:31;8.10;1.00
4058;DHT22;2044;48.692;9.020;2022-09-17T02:25:03;8.10;1.00
4058;DHT22;2044;48.692;9.020;2022-09-17T02:27:38;8.10;1.00
4058;DHT22;2044;48.692;9.020;2022-09-17T02:30:08;8.10;1.00
4058;DHT22;2044;48.692;9.020;2022-09-17T02:32:36;8.10;1.00
4058;DHT22;2044;48.692;9.020;2022-09-17T02:35:03;8.20;1.00
4058;DHT22;2044;48.692;9.020;2022-09-17T02:37:30;8.20;1.00
4058;DHT22;2044;48.692;9.020;2022-09-17T02:39:57;8.20;1.00
4058;DHT22;2044;48.692;9.020;2022-09-17T02:42:30;8.20;1.00
4058;DHT22;2044;48.692;9.020;2022-09-17T02:45:05;8.20;1.00
4058;DHT22;2044;48.692;9.020;2022-09-17T02:48:02;8.20;1.00
4058;DHT22;2044;48.692;9.020;2022-09-17T02:50:40;8.20;1.00
4058;DHT22;2044;48.692;9.020;2022-09-17T02:53:23;8.20;1.00
4058;DHT22;2044;48.692;9.020;2022-09-17T02:56:04;8.30;1.00
4058;DHT22;2044;48.692;9.020;2022-09-17T02:58:38;8.30;1.00
4058;DHT22;2044;48.692;9.020;2022-09-17T03:01:11;8.30;1.00
4058;DHT22;2044;48.692;9.020;2022-09-17T03:03:43;8.10;1.00
4058;DHT22;2044;48.692;9.020;2022-09-17T03:06:11;8.00;1.00
4058;DHT22;2044;48.692;9.020;2022-09-17T03:08:40;7.90;1.00
4058;DHT22;2044;48.692;9.020;2022-09-17T03:11:08;7.70;1.00
4058;DHT22;2044;48.692;9.020;2022-09-17T03:13:37;7.60;1.00
4058;DHT22;2044;48.692;9.020;2022-09-17T03:16:04;7.50;1.00
4058;DHT22;2044;48.692;9.020;2022-09-17T03:18:32;7.40;1.00
4058;DHT22;2044;48.692;9.020;2022-09-17T03:21:00;7.30;1.00
4058;DHT22;2044;48.692;9.020;2022-09-17T03:23:27;7.20;1.00
4058;DHT22;2044;48.692;9.020;2022-09-17T03:25:53;7.30;1.00
4058;DHT22;2044;48.692;9.020;2022-09-17T03:28:20;7.40;1.00
4058;DHT22;2044;48.692;9.020;2022-09-17T03:30:47;7.50;1.00
4058;DHT22;2044;48.692;9.020;2022-09-17T03:33:14;7.50;1.00
4058;DHT22;2044;48.692;9.020;2022-09-17T03:35:41;7.60;1.00
4058;DHT22;2044;48.692;9.020;2022-09-17T03:38:10;7.70;1.00
4058;DHT22;2044;48.692;9.020;2022-09-17T03:40:37;7.70;1.00
4058;DHT22;2044;48.692;9.020;2022-09-17T03:43:05;7.80;1.00
4058;DHT22;2044;48.692;9.020;2022-09-17T03:45:32;7.80;1.00
4058;DHT22;2044;48.692;9.020;2022-09-17T03:47:58;7.80;1.00
4058;DHT22;2044;48.692;9.020;2022-09-17T03:50:27;7.80;1.00
4058;DHT22;2044;48.692;9.020;2022-09-17T03:52:54;7.80;1.00
4058;DHT22;2044;48.692;9.020;2022-09-17T03:55:22;7.70;1.00
4058;DHT22;2044;48.692;9.020;2022-09-17T03:57:48;7.70;1.00
4058;DHT22;2044;48.692;9.020;2022-09-17T04:00:15;7.70;1.00
4058;DHT22;2044;48.692;9.020;2022-09-17T04:02:42;7.70;1.00
4058;DHT22;2044;48.692;9.020;2022-09-17T04:05:09;7.70;1.00
4058;DHT22;2044;48.692;9.020;2022-09-17T04:07:36;7.70;1.00
4058;DHT22;2044;48.692;9.020;2022-09-17T04:10:03;7.70;1.00
4058;DHT22;2044;48.692;9.020;2022-09-17T04:12:32;7.80;1.00
4058;DHT22;2044;48.692;9.020;2022-09-17T04:14:58;7.70;1.00
4058;DHT22;2044;48.692;9.020;2022-09-17T04:17:26;7.80;1.00
4058;DHT22;2044;48.692;9.020;2022-09-17T04:19:53;7.80;1.00
4058;DHT22;2044;48.692;9.020;2022-09-17T04:22:19;7.80;1.00
4058;DHT22;2044;48.692;9.020;2022-09-17T04:24:46;7.80;1.00
4058;DHT22;2044;48.692;9.020;2022-09-17T04:27:13;7.70;1.00
4058;DHT22;2044;48.692;9.020;2022-09-17T04:29:41;7.60;1.00
4058;DHT22;2044;48.692;9.020;2022-09-17T04:32:07;7.50;1.00
4058;DHT22;2044;48.692;9.020;2022-09-17T04:34:34;7.40;1.00
4058;DHT22;2044;48.692;9.020;2022-09-17T04:37:01;7.30;1.00
4058;DHT22;2044;48.692;9.020;2022-09-17T04:39:28;7.20;1.00
4058;DHT22;2044;48.692;9.020;2022-09-17T04:41:54;7.20;2.50
4058;DHT22;2044;48.692;9.020;2022-09-17T04:44:21;7.30;1.00
4058;DHT22;2044;48.692;9.020;2022-09-17T04:46:49;7.40;1.00
4058;DHT22;2044;48.692;9.020;2022-09-17T04:49:16;7.40;1.00
4058;DHT22;2044;48.692;9.020;2022-09-17T04:51:42;7.40;1.00
4058;DHT22;2044;48.692;9.020;2022-09-17T04:54:09;7.40;1.00
4058;DHT22;2044;48.692;9.020;2022-09-17T04:56:36;7.40;1.00
4058;DHT22;2044;48.692;9.020;2022-09-17T04:59:02;7.40;1.00
4058;DHT22;2044;48.692;9.020;2022-09-17T05:01:29;7.40;1.00
4058;DHT22;2044;48.692;9.020;2022-09-17T05:03:57;7.50;1.00
4058;DHT22;2044;48.692;9.020;2022-09-17T05:06:24;7.60;1.00
4058;DHT22;2044;48.692;9.020;2022-09-17T05:08:51;7.60;1.00
4058;DHT22;2044;48.692;9.020;2022-09-17T05:11:18;7.70;1.00
4058;DHT22;2044;48.692;9.020;2022-09-17T05:13:44;7.70;1.00
4058;DHT22;2044;48.692;9.020;2022-09-17T05:16:11;7.80;1.00
4058;DHT22;2044;48.692;9.020;2022-09-17T05:18:38;7.80;1.00
4058;DHT22;2044;48.692;9.020;2022-09-17T05:21:06;7.80;1.00
4058;DHT22;2044;48.692;9.020;2022-09-17T05:23:32;7.80;1.00
4058;DHT22;2044;48.692;9.020;2022-09-17T05:25:59;7.90;1.00
4058;DHT22;2044;48.692;9.020;2022-09-17T05:28:27;7.90;1.00
4058;DHT22;2044;48.692;9.020;2022-09-17T05:30:56;7.90;1.00
4058;DHT22;2044;48.692;9.020;2022-09-17T05:33:23;8.00;1.00
4058;DHT22;2044;48.692;9.020;2022-09-17T05:35:50;8.00;1.00
4058;DHT22;2044;48.692;9.020;2022-09-17T05:38:18;8.10;1.00
4058;DHT22;2044;48.692;9.020;2022-09-17T05:40:45;8.20;99.90
4058;DHT22;2044;48.692;9.020;2022-09-17T05:43:14;8.10;99.90
4058;DHT22;2044;48.692;9.020;2022-09-17T05:45:41;8.10;99.90
4058;DHT22;2044;48.692;9.020;2022-09-17T05:48:10;8.00;99.90
4058;DHT22;2044;48.692;9.020;2022-09-17T05:50:37;8.00;99.90
4058;DHT22;2044;48.692;9.020;2022-09-17T05:53:05;8.00;99.90
4058;DHT22;2044;48.692;9.020;2022-09-17T05:55:33;8.00;99.90
4058;DHT22;2044;48.692;9.020;2022-09-17T05:58:08;7.90;1.00
4058;DHT22;2044;48.692;9.020;2022-09-17T06:00:34;7.90;99.90
4058;DHT22;2044;48.692;9.020;2022-09-17T06:03:01;7.90;1.00
4058;DHT22;2044;48.692;9.020;2022-09-17T06:05:28;8.40;1.00
4058;DHT22;2044;48.692;9.020;2022-09-17T06:07:54;8.60;99.90
4058;DHT22;2044;48.692;9.020;2022-09-17T06:10:21;8.60;99.90
4058;DHT22;2044;48.692;9.020;2022-09-17T06:12:54;8.60;99.90
4058;DHT22;2044;48.692;9.020;2022-09-17T06:15:21;8.70;99.90
4058;DHT22;2044;48.692;9.020;2022-09-17T06:17:48;8.80;99.90
4058;DHT22;2044;48.692;9.020;2022-09-17T06:20:14;8.90;29.40
4058;DHT22;2044;48.692;9.020;2022-09-17T06:22:41;9.10;1.00
4058;DHT22;2044;48.692;9.020;2022-09-17T06:25:08;9.20;26.70
4058;DHT22;2044;48.692;9.020;2022-09-17T06:27:35;9.20;1.00
4058;DHT22;2044;48.692;9.020;2022-09-17T06:30:04;9.10;1.00
4058;DHT22;2044;48.692;9.020;2022-09-17T06:32:32;9.10;37.80
4058;DHT22;2044;48.692;9.020;2022-09-17T06:34:58;9.00;1.00
4058;DHT22;2044;48.692;9.020;2022-09-17T06:37:27;9.00;1.00
4058;DHT22;2044;48.692;9.020;2022-09-17T06:39:54;8.90;1.00
4058;DHT22;2044;48.692;9.020;2022-09-17T06:42:20;9.00;1.00
4058;DHT22;2044;48.692;9.020;2022-09-17T06:44:47;8.90;1.00
4058;DHT22;2044;48.692;9.020;2022-09-17T06:47:15;8.80;1.00
4058;DHT22;2044;48.692;9.020;2022-09-17T06:49:42;8.80;1.00
4058;DHT22;2044;48.692;9.020;2022-09-17T06:52:09;8.90;1.00
4058;DHT22;2044;48.692;9.020;2022-09-17T06:54:35;9.00;1.00
4058;DHT22;2044;48.692;9.020;2022-09-17T06:57:02;9.00;99.90
4058;DHT22;2044;48.692;9.020;2022-09-17T06:59:29;9.10;99.90
4058;DHT22;2044;48.692;9.020;2022-09-17T07:01:56;9.10;1.00
4058;DHT22;2044;48.692;9.020;2022-09-17T07:04:24;8.90;41.80
4058;DHT22;2044;48.692;9.020;2022-09-17T07:06:50;8.80;99.90
4058;DHT22;2044;48.692;9.020;2022-09-17T07:09:17;8.70;99.90
4058;DHT22;2044;48.692;9.020;2022-09-17T07:11:44;8.50;99.90
4058;DHT22;2044;48.692;9.020;2022-09-17T07:14:10;8.40;99.90
4058;DHT22;2044;48.692;9.020;2022-09-17T07:16:37;8.30;1.00
4058;DHT22;2044;48.692;9.020;2022-09-17T07:19:04;8.20;1.00
4058;DHT22;2044;48.692;9.020;2022-09-17T07:21:32;8.00;1.00
4058;DHT22;2044;48.692;9.020;2022-09-17T07:23:59;8.00;1.00
4058;DHT22;2044;48.692;9.020;2022-09-17T07:26:26;8.00;1.00
4058;DHT22;2044;48.692;9.020;2022-09-17T07:28:52;8.20;1.00
4058;DHT22;2044;48.692;9.020;2022-09-17T07:31:19;8.40;1.00
4058;DHT22;2044;48.692;9.020;2022-09-17T07:33:46;8.50;1.00
4058;DHT22;2044;48.692;9.020;2022-09-17T07:36:14;8.60;1.00
4058;DHT22;2044;48.692;9.020;2022-09-17T07:38:43;8.50;1.00
4058;DHT22;2044;48.692;9.020;2022-09-17T07:41:12;8.60;1.00
4058;DHT22;2044;48.692;9.020;2022-09-17T07:43:39;8.70;1.00
4058;DHT22;2044;48.692;9.020;2022-09-17T07:46:07;8.80;1.00
4058;DHT22;2044;48.692;9.020;2022-09-17T07:48:35;8.70;1.00
4058;DHT22;2044;48.692;9.020;2022-09-17T07:51:02;8.50;1.00
4058;DHT22;2044;48.692;9.020;2022-09-17T07:53:29;8.30;1.00
4058;DHT22;2044;48.692;9.020;2022-09-17T07:55:58;8.00;1.00
4058;DHT22;2044;48.692;9.020;2022-09-17T07:58:47;7.90;1.00
4058;DHT22;2044;48.692;9.020;2022-09-17T08:01:15;7.90;1.00
4058;DHT22;2044;48.692;9.020;2022-09-17T08:03:42;7.90;1.00
4058;DHT22;2044;48.692;9.020;2022-09-17T08:06:14;7.90;1.00
4058;DHT22;2044;48.692;9.020;2022-09-17T08:08:41;8.00;5.20
4058;DHT22;2044;48.692;9.020;2022-09-17T08:11:14;8.30;20.70
4058;DHT22;2044;48.692;9.020;2022-09-17T08:13:41;8.50;27.30
4058;DHT22;2044;48.692;9.020;2022-09-17T08:16:10;8.50;15.60
4058;DHT22;2044;48.692;9.020;2022-09-17T08:18:38;8.60;1.00
4058;DHT22;2044;48.692;9.020;2022-09-17T08:21:06;8.70;6.00
4058;DHT22;2044;48.692;9.020;2022-09-17T08:23:34;8.80;11.30
4058;DHT22;2044;48.692;9.020;2022-09-17T08:26:02;8.80;1.00
4058;DHT22;2044;48.692;9.020;2022-09-17T08:28:31;8.90;1.00
4058;DHT22;2044;48.692;9.020;2022-09-17T08:31:00;9.00;1.00
4058;DHT22;2044;48.692;9.020;2022-09-17T08:33:30;8.90;1.00
4058;DHT22;2044;48.692;9.020;2022-09-17T08:35:56;8.90;1.00
4058;DHT22;2044;48.692;9.020;2022-09-17T08:38:24;9.00;1.00
4058;DHT22;2044;48.692;9.020;2022-09-17T08:40:59;9.40;1.00
4058;DHT22;2044;48.692;9.020;2022-09-17T08:43:33;9.80;1.00
4058;DHT22;2044;48.692;9.020;2022-09-17T08:46:01;10.00;1.00
4058;DHT22;2044;48.692;9.020;2022-09-17T08:48:33;10.20;1.00
4058;DHT22;2044;48.692;9.020;2022-09-17T08:51:07;10.30;99.90
4058;DHT22;2044;48.692;9.020;2022-09-17T08:53:47;10.50;99.90
4058;DHT22;2044;48.692;9.020;2022-09-17T08:56:20;10.90;99.90
4058;DHT22;2044;48.692;9.020;2022-09-17T08:59:03;11.00;18.60
4058;DHT22;2044;48.692;9.020;2022-09-17T09:01:39;11.30;1.00
4058;DHT22;2044;48.692;9.020;2022-09-17T09:04:28;11.70;99.90
4058;DHT22;2044;48.692;9.020;2022-09-17T09:07:01;11.80;99.90
4058;DHT22;2044;48.692;9.020;2022-09-17T09:09:34;12.20;1.00
4058;DHT22;2044;48.692;9.020;2022-09-17T09:12:04;12.40;1.00
4058;DHT22;2044;48.692;9.020;2022-09-17T09:14:36;11.90;1.00
4058;DHT22;2044;48.692;9.020;2022-09-17T09:17:07;11.30;23.00
4058;DHT22;2044;48.692;9.020;2022-09-17T09:19:40;11.10;1.00
4058;DHT22;2044;48.692;9.020;2022-09-17T09:22:16;10.70;99.90
4058;DHT22;2044;48.692;9.020;2022-09-17T09:24:56;10.60;1.00
4058;DHT22;2044;48.692;9.020;2022-09-17T09:27:27;10.50;19.80
4058;DHT22;2044;48.692;9.020;2022-09-17T09:30:02;10.60;1.00
4058;DHT22;2044;48.692;9.020;2022-09-17T09:32:50;10.90;1.00
4058;DHT22;2044;48.692;9.020;2022-09-17T09:35:19;11.00;1.00
4058;DHT22;2044;48.692;9.020;2022-09-17T09:37:52;11.20;99.90
4058;DHT22;2044;48.692;9.020;2022-09-17T09:40:29;11.60;1.00
4058;DHT22;2044;48.692;9.020;2022-09-17T09:43:00;12.10;44.80
4058;DHT22;2044;48.692;9.020;2022-09-17T09:45:40;12.10;1.00
4058;DHT22;2044;48.692;9.020;2022-09-17T09:48:15;12.30;99.90
4058;DHT22;2044;48.692;9.020;2022-09-17T09:50:46;12.10;1.00
4058;DHT22;2044;48.692;9.020;2022-09-17T09:53:23;11.80;99.90
4058;DHT22;2044;48.692;9.020;2022-09-17T09:56:01;11.30;1.00
4058;DHT22;2044;48.692;9.020;2022-09-17T09:58:34;11.20;99.90
4058;DHT22;2044;48.692;9.020;2022-09-17T10:01:06;11.30;99.90
4058;DHT22;2044;48.692;9.020;2022-09-17T10:03:39;11.70;99.90
4058;DHT22;2044;48.692;9.020;2022-09-17T10:06:08;12.40;1.00
4058;DHT22;2044;48.692;9.020;2022-09-17T10:08:38;12.60;1.00
4058;DHT22;2044;48.692;9.020;2022-09-17T10:11:16;13.10;1.00
4058;DHT22;2044;48.692;9.020;2022-09-17T10:13:45;13.50;99.90
4058;DHT22;2044;48.692;9.020;2022-09-17T10:16:18;13.50;99.90
4058;DHT22;2044;48.692;9.020;2022-09-17T10:18:46;13.30;1.00
4058;DHT22;2044;48.692;9.020;2022-09-17T10:21:19;13.20;99.90
4058;DHT22;2044;48.692;9.020;2022-09-17T10:23:46;13.50;1.00
4058;DHT22;2044;48.692;9.020;2022-09-17T10:26:21;13.70;1.00
4058;DHT22;2044;48.692;9.020;2022-09-17T10:28:50;14.00;99.90
4058;DHT22;2044;48.692;9.020;2022-09-17T10:31:21;14.90;1.00
4058;DHT22;2044;48.692;9.020;2022-09-17T10:34:10;16.10;99.90
4058;DHT22;2044;48.692;9.020;2022-09-17T10:36:45;15.40;99.90
4058;DHT22;2044;48.692;9.020;2022-09-17T10:39:40;14.90;99.90
4058;DHT22;2044;48.692;9.020;2022-09-17T10:42:12;14.80;99.90
4058;DHT22;2044;48.692;9.020;2022-09-17T10:44:50;15.30;99.90
4058;DHT22;2044;48.692;9.020;2022-09-17T10:47:22;16.50;1.00
4058;DHT22;2044;48.692;9.020;2022-09-17T10:49:54;17.00;1.00
4058;DHT22;2044;48.692;9.020;2022-09-17T10:52:24;16.90;1.00
4058;DHT22;2044;48.692;9.020;2022-09-17T10:55:10;17.10;1.00
4058;DHT22;2044;48.692;9.020;2022-09-17T10:58:01;16.60;1.00
4058;DHT22;2044;48.692;9.020;2022-09-17T11:00:36;16.40;1.00
4058;DHT22;2044;48.692;9.020;2022-09-17T11:03:34;16.20;1.00
4058;DHT22;2044;48.692;9.020;2022-09-17T11:06:49;15.30;1.00
4058;DHT22;2044;48.692;9.020;2022-09-17T11:09:28;14.60;1.00
4058;DHT22;2044;48.692;9.020;2022-09-17T11:12:10;14.40;99.90
4058;DHT22;2044;48.692;9.020;2022-09-17T11:14:49;14.50;99.90
4058;DHT22;2044;48.692;9.020;2022-09-17T11:17:29;14.70;99.90
4058;DHT22;2044;48.692;9.020;2022-09-17T11:20:02;14.90;1.00
4058;DHT22;2044;48.692;9.020;2022-09-17T11:22:39;15.60;1.00
4058;DHT22;2044;48.692;9.020;2022-09-17T11:25:23;16.20;1.00
4058;DHT22;2044;48.692;9.020;2022-09-17T11:28:04;16.80;99.90
4058;DHT22;2044;48.692;9.020;2022-09-17T11:30:45;16.60;99.90
4058;DHT22;2044;48.692;9.020;2022-09-17T11:33:44;16.80;99.90
4058;DHT22;2044;48.692;9.020;2022-09-17T11:36:24;17.40;99.90
4058;DHT22;2044;48.692;9.020;2022-09-17T11:38:55;17.40;99.90
4058;DHT22;2044;48.692;9.020;2022-09-17T11:41:26;17.30;99.90
4058;DHT22;2044;48.692;9.020;2022-09-17T11:44:02;16.80;99.90
4058;DHT22;2044;48.692;9.020;2022-09-17T11:46:36;16.90;99.90
4058;DHT22;2044;48.692;9.020;2022-09-17T11:49:09;17.40;99.90
4058;DHT22;2044;48.692;9.020;2022-09-17T11:51:42;17.90;99.90
4058;DHT22;2044;48.692;9.020;2022-09-17T11:54:18;17.80;99.90
4058;DHT22;2044;48.692;9.020;2022-09-17T11:56:49;18.00;99.90
4058;DHT22;2044;48.692;9.020;2022-09-17T11:59:21;18.20;99.90
4058;DHT22;2044;48.692;9.020;2022-09-17T12:01:53;18.10;99.90
4058;DHT22;2044;48.692;9.020;2022-09-17T12:04:37;18.10;99.90
4058;DHT22;2044;48.692;9.020;2022-09-17T12:07:18;19.20;99.90
4058;DHT22;2044;48.692;9.020;2022-09-17T12:09:52;18.20;99.90
4058;DHT22;2044;48.692;9.020;2022-09-17T12:12:22;18.10;99.90
4058;DHT22;2044;48.692;9.020;2022-09-17T12:14:53;17.40;99.90
4058;DHT22;2044;48.692;9.020;2022-09-17T12:17:27;16.40;99.90
4058;DHT22;2044;48.692;9.020;2022-09-17T12:20:02;16.30;99.90
4058;DHT22;2044;48.692;9.020;2022-09-17T12:22:34;16.40;99.90
4058;DHT22;2044;48.692;9.020;2022-09-17T12:25:04;16.40;99.90
4058;DHT22;2044;48.692;9.020;2022-09-17T12:27:35;15.80;99.90
4058;DHT22;2044;48.692;9.020;2022-09-17T12:30:09;15.50;99.90
4058;DHT22;2044;48.692;9.020;2022-09-17T12:32:57;15.60;99.90
4058;DHT22;2044;48.692;9.020;2022-09-17T12:35:37;15.50;99.90
4058;DHT22;2044;48.692;9.020;2022-09-17T12:38:20;15.60;99.90
4058;DHT22;2044;48.692;9.020;2022-09-17T12:40:54;15.40;99.90
4058;DHT22;2044;48.692;9.020;2022-09-17T12:43:43;15.30;99.90
4058;DHT22;2044;48.692;9.020;2022-09-17T12:46:23;15.10;99.90
4058;DHT22;2044;48.692;9.020;2022-09-17T12:49:08;14.90;99.90
4058;DHT22;2044;48.692;9.020;2022-09-17T12:51:53;14.60;1.00
4058;DHT22;2044;48.692;9.020;2022-09-17T12:54:34;13.80;99.90
4058;DHT22;2044;48.692;9.020;2022-09-17T12:57:12;12.60;99.90
4058;DHT22;2044;48.692;9.020;2022-09-17T12:59:46;12.00;99.90
4058;DHT22;2044;48.692;9.020;2022-09-17T13:02:18;11.80;99.90
4058;DHT22;2044;48.692;9.020;2022-09-17T13:08:21;11.30;1.00
4058;DHT22;2044;48.692;9.020;2022-09-17T13:11:18;10.60;99.90
4058;DHT22;2044;48.692;9.020;2022-09-17T13:13:58;9.50;99.90
4058;DHT22;2044;48.692;9.020;2022-09-17T13:16:34;9.00;99.90
4058;DHT22;2044;48.692;9.020;2022-09-17T13:19:06;8.80;1.00
4058;DHT22;2044;48.692;9.020;2022-09-17T13:21:42;8.90;1.00
4058;DHT22;2044;48.692;9.020;2022-09-17T13:24:15;9.00;1.00
4058;DHT22;2044;48.692;9.020;2022-09-17T13:26:44;9.30;1.00
4058;DHT22;2044;48.692;9.020;2022-09-17T13:29:12;9.60;1.00
4058;DHT22;2044;48.692;9.020;2022-09-17T13:31:48;10.00;1.00
4058;DHT22;2044;48.692;9.020;2022-09-17T13:34:29;10.30;1.00
4058;DHT22;2044;48.692;9.020;2022-09-17T13:36:58;10.60;1.00
4058;DHT22;2044;48.692;9.020;2022-09-17T13:39:40;11.00;1.00
4058;DHT22;2044;48.692;9.020;2022-09-17T13:42:14;11.20;99.90
4058;DHT22;2044;48.692;9.020;2022-09-17T13:44:45;11.70;99.90
4058;DHT22;2044;48.692;9.020;2022-09-17T13:47:22;12.10;1.00
4058;DHT22;2044;48.692;9.020;2022-09-17T13:49:53;12.50;1.00
4058;DHT22;2044;48.692;9.020;2022-09-17T13:52:35;12.70;1.00
4058;DHT22;2044;48.692;9.020;2022-09-17T13:55:05;12.90;37.80
4058;DHT22;2044;48.692;9.020;2022-09-17T13:57:45;13.20;99.90
4058;DHT22;2044;48.692;9.020;2022-09-17T14:00:47;13.30;1.00
4058;DHT22;2044;48.692;9.020;2022-09-17T14:03:53;13.80;46.70
4058;DHT22;2044;48.692;9.020;2022-09-17T14:06:47;14.20;1.00
4058;DHT22;2044;48.692;9.020;2022-09-17T14:09:52;14.10;99.90
4058;DHT22;2044;48.692;9.020;2022-09-17T14:12:54;14.00;99.90
4058;DHT22;2044;48.692;9.020;2022-09-17T14:15:34;14.30;99.90
4058;DHT22;2044;48.692;9.020;2022-09-17T14:18:01;14.30;99.90
4058;DHT22;2044;48.692;9.020;2022-09-17T14:20:48;14.00;99.90
4058;DHT22;2044;48.692;9.020;2022-09-17T14:23:15;14.00;1.00
4058;DHT22;2044;48.692;9.020;2022-09-17T14:25:52;14.00;1.00
4058;DHT22;2044;48.692;9.020;2022-09-17T14:28:29;13.80;70.60
4058;DHT22;2044;48.692;9.020;2022-09-17T14:30:59;13.30;99.90
4058;DHT22;2044;48.692;9.020;2022-09-17T14:33:29;13.20;1.00
4058;DHT22;2044;48.692;9.020;2022-09-17T14:36:00;13.20;1.00
4058;DHT22;2044;48.692;9.020;2022-09-17T14:38:36;12.90;1.00
4058;DHT22;2044;48.692;9.020;2022-09-17T14:41:13;12.90;1.00
4058;DHT22;2044;48.692;9.020;2022-09-17T14:43:48;13.60;1.00
4058;DHT22;2044;48.692;9.020;2022-09-17T14:46:20;13.90;1.00
4058;DHT22;2044;48.692;9.020;2022-09-17T14:48:48;13.70;1.00
4058;DHT22;2044;48.692;9.020;2022-09-17T14:51:26;13.60;99.90
4058;DHT22;2044;48.692;9.020;2022-09-17T14:56:56;13.40;99.90
4058;DHT22;2044;48.692;9.020;2022-09-17T14:59:40;13.80;99.90
4058;DHT22;2044;48.692;9.020;2022-09-17T15:02:22;13.90;99.90
4058;DHT22;2044;48.692;9.020;2022-09-17T15:04:52;13.90;99.90
4058;DHT22;2044;48.692;9.020;2022-09-17T15:07:20;13.80;1.00
4058;DHT22;2044;48.692;9.020;2022-09-17T15:09:47;13.60;99.90
4058;DHT22;2044;48.692;9.020;2022-09-17T15:12:16;13.30;1.00
4058;DHT22;2044;48.692;9.020;2022-09-17T15:14:46;13.10;88.30
4058;DHT22;2044;48.692;9.020;2022-09-17T15:17:15;13.30;99.90
4058;DHT22;2044;48.692;9.020;2022-09-17T15:19:45;13.70;1.00
4058;DHT22;2044;48.692;9.020;2022-09-17T15:22:16;13.80;99.90
4058;DHT22;2044;48.692;9.020;2022-09-17T15:24:49;14.00;99.90
4058;DHT22;2044;48.692;9.020;2022-09-17T15:27:23;13.60;99.90
4058;DHT22;2044;48.692;9.020;2022-09-17T15:29:55;13.30;1.00
4058;DHT22;2044;48.692;9.020;2022-09-17T15:32:23;13.10;18.60
4058;DHT22;2044;48.692;9.020;2022-09-17T15:35:18;13.00;99.90
4058;DHT22;2044;48.692;9.020;2022-09-17T15:37:46;12.80;99.90
4058;DHT22;2044;48.692;9.020;2022-09-17T15:40:24;12.60;89.50
4058;DHT22;2044;48.692;9.020;2022-09-17T15:43:03;12.40;1.00
4058;DHT22;2044;48.692;9.020;2022-09-17T15:45:34;12.40;99.90
4058;DHT22;2044;48.692;9.020;2022-09-17T15:48:04;12.50;99.90
4058;DHT22;2044;48.692;9.020;2022-09-17T15:50:35;13.00;99.90
4058;DHT22;2044;48.692;9.020;2022-09-17T15:53:22;12.40;1.00
4058;DHT22;2044;48.692;9.020;2022-09-17T15:56:04;12.80;99.90
4058;DHT22;2044;48.692;9.020;2022-09-17T15:58:36;13.00;99.90
4058;DHT22;2044;48.692;9.020;2022-09-17T16:04:19;12.80;99.90
4058;DHT22;2044;48.692;9.020;2022-09-17T16:07:01;12.40;99.90
4058;DHT22;2044;48.692;9.020;2022-09-17T16:09:42;12.10;1.00
4058;DHT22;2044;48.692;9.020;2022-09-17T16:12:13;12.00;99.90
4058;DHT22;2044;48.692;9.020;2022-09-17T16:14:44;11.90;99.90
4058;DHT22;2044;48.692;9.020;2022-09-17T16:17:29;11.90;1.00
4058;DHT22;2044;48.692;9.020;2022-09-17T16:20:05;11.90;1.00
4058;DHT22;2044;48.692;9.020;2022-09-17T16:22:33;12.20;99.90
4058;DHT22;2044;48.692;9.020;2022-09-17T16:25:00;12.40;99.90
4058;DHT22;2044;48.692;9.020;2022-09-17T16:27:28;12.90;99.90
4058;DHT22;2044;48.692;9.020;2022-09-17T16:30:02;13.10;99.90
4058;DHT22;2044;48.692;9.020;2022-09-17T16:32:29;12.60;1.00
4058;DHT22;2044;48.692;9.020;2022-09-17T16:34:55;12.30;1.00
4058;DHT22;2044;48.692;9.020;2022-09-17T16:37:24;12.10;7.20
4058;DHT22;2044;48.692;9.020;2022-09-17T16:39:50;12.10;99.90
4058;DHT22;2044;48.692;9.020;2022-09-17T16:42:18;12.10;99.90
4058;DHT22;2044;48.692;9.020;2022-09-17T16:44:44;11.90;1.00
4058;DHT22;2044;48.692;9.020;2022-09-17T16:47:11;11.60;69.00
4058;DHT22;2044;48.692;9.020;2022-09-17T16:49:38;11.40;1.00
4058;DHT22;2044;48.692;9.020;2022-09-17T16:52:04;11.30;99.90
4058;DHT22;2044;48.692;9.020;2022-09-17T16:54:32;11.20;1.00
4058;DHT22;2044;48.692;9.020;2022-09-17T16:56:59;11.20;99.90
4058;DHT22;2044;48.692;9.020;2022-09-17T16:59:26;11.10;99.90
4058;DHT22;2044;48.692;9.020;2022-09-17T17:01:53;11.20;99.90
4058;DHT22;2044;48.692;9.020;2022-09-17T17:04:20;11.00;99.90